Time;durP1;ratioP1;P1;durP2;ratioP2;P2;SDS_P1;SDS_P2;PMS_P1;PMS_P2;Temp;Humidity;BMP_temperature;BMP_pressure;BME280_temperature;BME280_humidity;BME280_pressure;Samples;Min_cycle;Max_cycle;Signal;HPM_P1;HPM_P2
2023/04/25 00:00:26;;;;;;;6.27;5.67;;;;;;;;;;5011821;28;20231;-73
2023/04/25 00:02:59;;;;;;;6.60;5.10;;;;;;;;;;5010997;28;20277;-74
2023/04/25 00:05:30;;;;;;;7.40;5.70;;;;;;;;;;5011077;28;20219;-74
2023/04/25 00:07:57;;;;;;;6.53;5.83;;;;;;;;;;5006033;28;20190;-74
2023/04/25 00:10:26;;;;;;;7.23;6.03;;;;;;;;;;5009978;28;20518;-73
2023/04/25 00:12:58;;;;;;;16.83;9.27;;;;;;;;;;5010908;28;20725;-73
2023/04/25 00:15:25;;;;;;;8.73;6.50;;;;;;;;;;5012159;28;20678;-73
2023/04/25 00:17:52;;;;;;;8.27;6.10;;;;;;;;;;5011041;28;20273;-73
2023/04/25 00:20:19;;;;;;;9.80;6.57;;;;;;;;;;5010398;28;20192;-73
2023/04/25 00:22:47;;;;;;;6.87;5.47;;;;;;;;;;5009918;28;20187;-74
2023/04/25 00:25:20;;;;;;;9.10;6.60;;;;;;;;;;5008096;28;21232;-74
2023/04/25 00:27:55;;;;;;;15.53;10.30;;;;;;;;;;5010438;28;20187;-74
2023/04/25 00:30:25;;;;;;;20.27;13.17;;;;;;;;;;5011173;28;20179;-74
2023/04/25 00:32:52;;;;;;;16.90;10.63;;;;;;;;;;5012127;28;20250;-73
2023/04/25 00:35:18;;;;;;;11.70;8.63;;;;;;;;;;4999984;28;20592;-73
2023/04/25 00:37:45;;;;;;;16.53;11.03;;;;;;;;;;5010149;28;20282;-73
2023/04/25 00:40:14;;;;;;;22.77;13.73;;;;;;;;;;5010016;28;20195;-73
2023/04/25 00:42:43;;;;;;;15.03;9.67;;;;;;;;;;4992925;28;20183;-73
2023/04/25 00:45:14;;;;;;;11.00;8.90;;;;;;;;;;5009775;28;20309;-73
2023/04/25 00:47:40;;;;;;;22.67;14.00;;;;;;;;;;5002371;28;20658;-74
2023/04/25 00:50:10;;;;;;;15.30;10.67;;;;;;;;;;5006366;28;20191;-73
2023/04/25 00:52:47;;;;;;;15.00;10.63;;;;;;;;;;5008697;28;20183;-73
2023/04/25 00:55:15;;;;;;;10.73;8.00;;;;;;;;;;5009085;28;20646;-73
2023/04/25 00:57:42;;;;;;;12.97;9.23;;;;;;;;;;5005226;28;20195;-73
2023/04/25 01:00:14;;;;;;;13.60;10.10;;;;;;;;;;5008179;28;20199;-74
2023/04/25 01:02:41;;;;;;;8.80;6.20;;;;;;;;;;5004698;28;20191;-73
2023/04/25 01:05:08;;;;;;;12.73;8.97;;;;;;;;;;4987312;28;20215;-73
2023/04/25 01:07:35;;;;;;;10.00;6.87;;;;;;;;;;5011307;28;20187;-74
2023/04/25 01:10:02;;;;;;;8.13;5.57;;;;;;;;;;5010952;28;20218;-73
2023/04/25 01:12:32;;;;;;;6.60;5.87;;;;;;;;;;5005409;28;20314;-73
2023/04/25 01:14:59;;;;;;;6.07;5.07;;;;;;;;;;5003695;28;20210;-73
2023/04/25 01:17:25;;;;;;;5.93;5.20;;;;;;;;;;5003666;28;20190;-73
2023/04/25 01:19:52;;;;;;;5.87;5.27;;;;;;;;;;4994180;28;20184;-74
2023/04/25 01:22:18;;;;;;;8.43;6.63;;;;;;;;;;5008770;28;20190;-73
2023/04/25 01:24:54;;;;;;;7.10;5.90;;;;;;;;;;5008140;28;20623;-73
2023/04/25 01:27:21;;;;;;;7.17;6.20;;;;;;;;;;5007070;28;20528;-73
2023/04/25 01:29:48;;;;;;;7.20;5.83;;;;;;;;;;5009886;28;20655;-73
2023/04/25 01:32:27;;;;;;;7.50;6.17;;;;;;;;;;5007998;28;20859;-73
2023/04/25 01:34:55;;;;;;;6.90;6.13;;;;;;;;;;5006690;28;20298;-73
2023/04/25 01:37:21;;;;;;;6.87;6.17;;;;;;;;;;5006020;28;20195;-73
2023/04/25 01:39:48;;;;;;;7.63;6.03;;;;;;;;;;5005843;28;20694;-73
2023/04/25 01:42:15;;;;;;;8.47;6.60;;;;;;;;;;5005689;28;20782;-73
2023/04/25 01:44:45;;;;;;;7.03;6.33;;;;;;;;;;5009000;28;20226;-73
2023/04/25 01:47:11;;;;;;;6.27;5.67;;;;;;;;;;5008707;28;20206;-73
2023/04/25 01:49:38;;;;;;;7.50;6.50;;;;;;;;;;5011159;28;20593;-73
2023/04/25 01:52:05;;;;;;;7.80;6.80;;;;;;;;;;5008847;28;20718;-73
2023/04/25 01:54:38;;;;;;;7.60;6.77;;;;;;;;;;5008118;28;20242;-73
2023/04/25 01:57:06;;;;;;;7.10;6.40;;;;;;;;;;5001039;28;20654;-73
2023/04/25 01:59:35;;;;;;;7.60;6.70;;;;;;;;;;5008741;28;20183;-73
2023/04/25 02:02:22;;;;;;;7.10;5.87;;;;;;;;;;5009551;28;20737;-73
2023/04/25 02:04:51;;;;;;;7.10;6.40;;;;;;;;;;5002899;28;20204;-73
2023/04/25 02:07:24;;;;;;;7.30;6.03;;;;;;;;;;5006908;28;20343;-73
2023/04/25 02:09:52;;;;;;;7.90;6.73;;;;;;;;;;5001324;28;20331;-73
2023/04/25 02:12:23;;;;;;;8.40;6.67;;;;;;;;;;4999721;28;20734;-73
2023/04/25 02:15:16;;;;;;;7.67;6.67;;;;;;;;;;4992713;28;20729;-73
2023/04/25 02:18:00;;;;;;;8.87;7.97;;;;;;;;;;5000115;28;20643;-73
2023/04/25 02:20:28;;;;;;;8.10;7.30;;;;;;;;;;5006242;28;20715;-73
2023/04/25 02:22:55;;;;;;;8.00;6.57;;;;;;;;;;4993244;28;20187;-73
2023/04/25 02:25:30;;;;;;;8.50;7.60;;;;;;;;;;4986942;28;20216;-73
2023/04/25 02:27:58;;;;;;;8.97;7.67;;;;;;;;;;5005055;28;20195;-73
2023/04/25 02:30:27;;;;;;;9.37;7.63;;;;;;;;;;5009562;28;20682;-73
2023/04/25 02:32:54;;;;;;;9.27;8.13;;;;;;;;;;5009076;28;20821;-74
2023/04/25 02:35:20;;;;;;;8.27;7.37;;;;;;;;;;5004780;28;20222;-74
2023/04/25 02:37:46;;;;;;;7.67;6.50;;;;;;;;;;5011673;28;20712;-73
2023/04/25 02:40:28;;;;;;;8.03;6.70;;;;;;;;;;4997353;28;20246;-73
2023/04/25 02:43:03;;;;;;;8.00;7.20;;;;;;;;;;5011974;28;20191;-73
2023/04/25 02:45:30;;;;;;;6.80;5.97;;;;;;;;;;5016978;28;20284;-73
2023/04/25 02:47:58;;;;;;;7.50;6.70;;;;;;;;;;5012797;28;20187;-73
2023/04/25 02:50:25;;;;;;;7.80;7.00;;;;;;;;;;5013773;28;20215;-73
2023/04/25 02:52:58;;;;;;;8.47;6.80;;;;;;;;;;5012636;28;20191;-73
2023/04/25 02:55:30;;;;;;;8.53;7.63;;;;;;;;;;4996435;28;20207;-73
2023/04/25 02:58:00;;;;;;;8.60;7.67;;;;;;;;;;5011765;28;20187;-73
2023/04/25 03:00:43;;;;;;;8.67;7.70;;;;;;;;;;5012294;28;20187;-73
2023/04/25 03:03:12;;;;;;;8.87;7.50;;;;;;;;;;5008229;28;20191;-73
2023/04/25 03:05:38;;;;;;;12.40;8.67;;;;;;;;;;5008349;28;20218;-73
2023/04/25 03:08:07;;;;;;;16.57;10.07;;;;;;;;;;5011728;28;20190;-73
2023/04/25 03:10:37;;;;;;;23.17;12.80;;;;;;;;;;5027188;28;20206;-73
2023/04/25 03:13:06;;;;;;;18.33;10.87;;;;;;;;;;5009794;28;20190;-73
2023/04/25 03:15:33;;;;;;;14.20;8.97;;;;;;;;;;4993648;28;20578;-73
2023/04/25 03:17:59;;;;;;;11.87;8.97;;;;;;;;;;5004443;28;20277;-73
2023/04/25 03:20:28;;;;;;;11.43;8.73;;;;;;;;;;5005843;28;20208;-73
2023/04/25 03:22:55;;;;;;;13.80;9.90;;;;;;;;;;5004158;28;20179;-73
2023/04/25 03:25:27;;;;;;;15.53;10.97;;;;;;;;;;5002933;28;20306;-73
2023/04/25 03:27:53;;;;;;;10.97;8.97;;;;;;;;;;5011502;28;20179;-73
2023/04/25 03:30:28;;;;;;;14.53;10.40;;;;;;;;;;4996293;28;20247;-73
2023/04/25 03:32:55;;;;;;;9.83;8.80;;;;;;;;;;5009891;28;20229;-72
2023/04/25 03:35:34;;;;;;;12.03;8.90;;;;;;;;;;5008924;28;20223;-73
2023/04/25 03:38:01;;;;;;;9.43;7.73;;;;;;;;;;5003991;28;20221;-73
2023/04/25 03:40:31;;;;;;;10.80;9.10;;;;;;;;;;4993494;28;20191;-73
2023/04/25 03:43:13;;;;;;;9.53;8.23;;;;;;;;;;5006565;28;20233;-73
2023/04/25 03:45:44;;;;;;;10.57;8.40;;;;;;;;;;5004349;28;20207;-73
2023/04/25 03:48:25;;;;;;;10.73;8.97;;;;;;;;;;4988311;28;20655;-73
2023/04/25 03:50:57;;;;;;;11.37;8.90;;;;;;;;;;5010775;28;20190;-72
2023/04/25 03:53:24;;;;;;;11.00;8.77;;;;;;;;;;5011628;28;20262;-73
2023/04/25 03:56:13;;;;;;;13.27;9.27;;;;;;;;;;4999415;28;20311;-73
2023/04/25 03:58:41;;;;;;;11.27;9.17;;;;;;;;;;5009002;28;20198;-73
2023/04/25 04:01:08;;;;;;;10.00;8.63;;;;;;;;;;5007927;28;20195;-73
2023/04/25 04:03:44;;;;;;;10.27;8.77;;;;;;;;;;5011073;28;20187;-73
2023/04/25 04:06:12;;;;;;;8.50;7.67;;;;;;;;;;5003989;28;20211;-73
2023/04/25 04:08:42;;;;;;;8.90;8.00;;;;;;;;;;5011675;28;20183;-73
2023/04/25 04:11:10;;;;;;;8.70;7.80;;;;;;;;;;4995478;28;20191;-73
2023/04/25 04:13:37;;;;;;;11.50;10.30;;;;;;;;;;5010022;28;20902;-73
2023/04/25 04:16:04;;;;;;;9.60;8.57;;;;;;;;;;5002568;28;20511;-73
2023/04/25 04:18:33;;;;;;;10.10;8.17;;;;;;;;;;5010839;28;20192;-73
2023/04/25 04:21:00;;;;;;;9.97;8.60;;;;;;;;;;4999148;28;20179;-73
2023/04/25 04:23:29;;;;;;;9.30;8.40;;;;;;;;;;5011183;28;20183;-73
2023/04/25 04:25:57;;;;;;;9.97;8.67;;;;;;;;;;5008722;28;20229;-73
2023/04/25 04:28:42;;;;;;;10.63;9.53;;;;;;;;;;4995964;28;20183;-73
2023/04/25 04:31:29;;;;;;;8.77;7.77;;;;;;;;;;4991358;28;20212;-73
2023/04/25 04:33:59;;;;;;;9.97;8.73;;;;;;;;;;5003477;28;20195;-73
2023/04/25 04:36:30;;;;;;;12.10;10.90;;;;;;;;;;5008182;28;20219;-73
2023/04/25 04:39:03;;;;;;;11.20;9.77;;;;;;;;;;5009940;28;20195;-73
2023/04/25 04:41:37;;;;;;;11.27;10.03;;;;;;;;;;5011427;28;20186;-73
2023/04/25 04:44:11;;;;;;;13.33;10.43;;;;;;;;;;5009870;28;20293;-73
2023/04/25 04:46:46;;;;;;;12.40;10.63;;;;;;;;;;5008180;28;20278;-73
2023/04/25 04:49:32;;;;;;;11.43;9.37;;;;;;;;;;5010017;28;20235;-73
2023/04/25 04:52:21;;;;;;;9.83;8.83;;;;;;;;;;5009064;28;20199;-73
2023/04/25 04:55:01;;;;;;;12.17;10.53;;;;;;;;;;5005651;28;20207;-73
2023/04/25 04:58:10;;;;;;;13.73;11.00;;;;;;;;;;4988204;28;20282;-73
2023/04/25 05:00:59;;;;;;;11.10;9.87;;;;;;;;;;5004547;28;20472;-73
2023/04/25 05:03:31;;;;;;;12.33;10.40;;;;;;;;;;5010573;28;20190;-73
2023/04/25 05:06:14;;;;;;;12.60;10.77;;;;;;;;;;5010508;28;20306;-73
2023/04/25 05:09:16;;;;;;;11.50;10.10;;;;;;;;;;5011194;28;20187;-73
2023/04/25 05:12:07;;;;;;;12.13;9.60;;;;;;;;;;4989045;28;20233;-72
2023/04/25 05:14:55;;;;;;;11.93;10.60;;;;;;;;;;5004335;28;20218;-73
2023/04/25 05:17:52;;;;;;;14.87;11.10;;;;;;;;;;5006511;28;20191;-73
2023/04/25 05:20:24;;;;;;;14.97;12.63;;;;;;;;;;5011634;28;20625;-73
2023/04/25 05:23:03;;;;;;;13.57;11.03;;;;;;;;;;5008853;28;20260;-73
2023/04/25 05:25:42;;;;;;;14.37;11.27;;;;;;;;;;4987650;28;20215;-73
2023/04/25 05:28:22;;;;;;;13.43;11.47;;;;;;;;;;4993306;28;20199;-73
2023/04/25 05:31:10;;;;;;;13.87;10.80;;;;;;;;;;5004444;28;20685;-73
2023/04/25 05:34:12;;;;;;;16.33;13.67;;;;;;;;;;4999964;28;20187;-73
2023/04/25 05:37:06;;;;;;;14.40;12.17;;;;;;;;;;5009874;28;20557;-73
2023/04/25 05:39:46;;;;;;;14.50;12.23;;;;;;;;;;5008513;28;20197;-73
2023/04/25 05:42:25;;;;;;;16.33;13.87;;;;;;;;;;5023538;28;20191;-73
2023/04/25 05:45:22;;;;;;;15.77;13.23;;;;;;;;;;4997255;28;21057;-73
2023/04/25 05:48:07;;;;;;;14.93;12.70;;;;;;;;;;4991906;28;20532;-73
2023/04/25 05:51:06;;;;;;;14.03;11.77;;;;;;;;;;5003404;28;20194;-75
2023/04/25 05:53:54;;;;;;;14.27;11.50;;;;;;;;;;5006097;28;20193;-76
2023/04/25 05:56:21;;;;;;;13.33;11.70;;;;;;;;;;5010693;28;20207;-78
2023/04/25 05:58:52;;;;;;;14.10;12.13;;;;;;;;;;4994256;28;20317;-76
2023/04/25 06:01:23;;;;;;;14.27;12.77;;;;;;;;;;5010133;28;20182;-76
2023/04/25 06:03:51;;;;;;;14.43;12.47;;;;;;;;;;4992383;28;20191;-76
2023/04/25 06:06:18;;;;;;;14.07;12.10;;;;;;;;;;5009452;28;20227;-76
2023/04/25 06:08:44;;;;;;;15.70;12.57;;;;;;;;;;5009866;28;20209;-76
2023/04/25 06:11:14;;;;;;;15.03;11.77;;;;;;;;;;5012805;28;20187;-76
2023/04/25 06:13:43;;;;;;;13.50;11.57;;;;;;;;;;5013958;28;20190;-76
2023/04/25 06:16:11;;;;;;;14.57;11.43;;;;;;;;;;4996814;28;20345;-76
2023/04/25 06:18:37;;;;;;;14.80;11.43;;;;;;;;;;5007779;28;20187;-76
2023/04/25 06:21:03;;;;;;;17.37;10.27;;;;;;;;;;4991009;28;20668;-76
2023/04/25 06:23:29;;;;;;;14.43;10.13;;;;;;;;;;5001092;28;20194;-78
2023/04/25 06:26:01;;;;;;;12.87;9.87;;;;;;;;;;5018675;28;20243;-76
2023/04/25 06:28:29;;;;;;;14.37;9.67;;;;;;;;;;5018194;28;20187;-77
2023/04/25 06:30:55;;;;;;;14.03;8.90;;;;;;;;;;5019612;28;20224;-76
2023/04/25 06:33:24;;;;;;;10.53;8.23;;;;;;;;;;5014387;28;20242;-77
2023/04/25 06:35:50;;;;;;;12.37;7.67;;;;;;;;;;4998777;28;20219;-76
2023/04/25 06:38:19;;;;;;;11.23;7.60;;;;;;;;;;5013817;28;20238;-77
2023/04/25 06:40:48;;;;;;;11.83;8.17;;;;;;;;;;5022625;28;20553;-75
2023/04/25 06:43:14;;;;;;;13.10;8.30;;;;;;;;;;5013755;28;20629;-76
2023/04/25 06:46:02;;;;;;;19.33;8.63;;;;;;;;;;5020285;28;20210;-76
2023/04/25 06:48:30;;;;;;;11.30;7.57;;;;;;;;;;5018002;28;20175;-76
2023/04/25 06:50:58;;;;;;;14.10;8.20;;;;;;;;;;5018832;28;20179;-76
2023/04/25 06:53:25;;;;;;;15.03;8.10;;;;;;;;;;5015825;28;20174;-78
2023/04/25 06:55:57;;;;;;;12.80;8.03;;;;;;;;;;5024091;28;20245;-76
2023/04/25 06:58:26;;;;;;;12.37;8.13;;;;;;;;;;5005341;28;20206;-76
2023/04/25 07:01:09;;;;;;;12.90;7.83;;;;;;;;;;5020833;28;20218;-77
2023/04/25 07:03:37;;;;;;;16.67;8.50;;;;;;;;;;5026926;28;20704;-76
2023/04/25 07:06:07;;;;;;;12.53;7.90;;;;;;;;;;5023388;28;20252;-77
2023/04/25 07:08:34;;;;;;;13.27;7.87;;;;;;;;;;5002277;28;20193;-77
2023/04/25 07:11:00;;;;;;;12.83;7.60;;;;;;;;;;5017205;28;20211;-77
2023/04/25 07:13:26;;;;;;;12.30;7.10;;;;;;;;;;5012272;28;20202;-76
2023/04/25 07:15:52;;;;;;;12.60;6.93;;;;;;;;;;4995999;28;20257;-75
2023/04/25 07:18:20;;;;;;;14.17;7.97;;;;;;;;;;5013728;28;20191;-75
2023/04/25 07:20:47;;;;;;;12.07;7.93;;;;;;;;;;5004255;28;20234;-76
2023/04/25 07:23:14;;;;;;;14.17;8.53;;;;;;;;;;4999654;28;20269;-77
2023/04/25 07:25:40;;;;;;;16.13;8.83;;;;;;;;;;5007212;28;20213;-77
2023/04/25 07:28:07;;;;;;;15.60;8.50;;;;;;;;;;4976985;28;20263;-76
2023/04/25 07:30:34;;;;;;;13.43;8.70;;;;;;;;;;5009105;28;20270;-77
2023/04/25 07:33:03;;;;;;;15.63;10.03;;;;;;;;;;5012978;28;20182;-77
2023/04/25 07:35:29;;;;;;;12.70;9.60;;;;;;;;;;5010112;28;20686;-77
2023/04/25 07:37:55;;;;;;;16.23;9.03;;;;;;;;;;5009327;28;20187;-77
2023/04/25 07:40:23;;;;;;;16.27;9.37;;;;;;;;;;5011571;28;20560;-77
2023/04/25 07:42:54;;;;;;;16.90;8.70;;;;;;;;;;4988384;28;20183;-77
2023/04/25 07:45:37;;;;;;;14.33;8.67;;;;;;;;;;5011638;28;20215;-77
2023/04/25 07:48:04;;;;;;;12.97;8.70;;;;;;;;;;4997600;28;20230;-77
2023/04/25 07:50:32;;;;;;;14.03;8.53;;;;;;;;;;5011349;28;20266;-77
2023/04/25 07:52:58;;;;;;;12.03;7.60;;;;;;;;;;5007778;28;20183;-77
2023/04/25 07:55:41;;;;;;;14.73;8.17;;;;;;;;;;5004131;28;20199;-77
2023/04/25 07:58:15;;;;;;;15.57;8.30;;;;;;;;;;5011409;28;20885;-77
2023/04/25 08:00:43;;;;;;;14.83;8.57;;;;;;;;;;5002965;28;20187;-77
2023/04/25 08:03:32;;;;;;;13.33;7.77;;;;;;;;;;4997448;28;20195;-77
2023/04/25 08:05:59;;;;;;;12.07;7.37;;;;;;;;;;5001409;28;20230;-77
2023/04/25 08:08:27;;;;;;;11.27;7.43;;;;;;;;;;4990057;28;20624;-76
2023/04/25 08:10:54;;;;;;;10.93;6.97;;;;;;;;;;5018681;28;20224;-76
2023/04/25 08:13:21;;;;;;;11.17;6.30;;;;;;;;;;5012477;28;20187;-76
2023/04/25 08:15:47;;;;;;;16.47;8.47;;;;;;;;;;5018201;28;20555;-77
2023/04/25 08:18:13;;;;;;;13.20;8.37;;;;;;;;;;5005189;28;20593;-77
2023/04/25 08:20:41;;;;;;;14.03;7.43;;;;;;;;;;5021257;28;20674;-76
2023/04/25 08:23:10;;;;;;;10.77;7.30;;;;;;;;;;4997092;28;20194;-77
2023/04/25 08:25:57;;;;;;;11.47;7.73;;;;;;;;;;5008658;28;20246;-77
2023/04/25 08:28:26;;;;;;;13.37;7.10;;;;;;;;;;5006499;28;20178;-76
2023/04/25 08:30:52;;;;;;;10.63;5.80;;;;;;;;;;5011623;28;20191;-77
2023/04/25 08:33:19;;;;;;;9.33;6.07;;;;;;;;;;5018649;28;20179;-77
2023/04/25 08:36:05;;;;;;;9.97;6.53;;;;;;;;;;5014036;28;20710;-77
2023/04/25 08:38:32;;;;;;;11.43;6.83;;;;;;;;;;5011812;28;20627;-77
2023/04/25 08:41:03;;;;;;;12.37;6.20;;;;;;;;;;5014581;28;20187;-77
2023/04/25 08:43:32;;;;;;;12.00;6.27;;;;;;;;;;5033221;28;20175;-77
2023/04/25 08:46:00;;;;;;;10.53;5.90;;;;;;;;;;5011447;28;20218;-77
2023/04/25 08:48:35;;;;;;;9.53;5.73;;;;;;;;;;4977312;28;20264;-77
2023/04/25 08:51:02;;;;;;;12.97;6.07;;;;;;;;;;5019617;28;20176;-77
2023/04/25 08:53:31;;;;;;;9.63;5.27;;;;;;;;;;5016723;28;20178;-77
2023/04/25 08:56:06;;;;;;;9.10;5.23;;;;;;;;;;5066381;28;20633;-76
2023/04/25 08:58:36;;;;;;;7.97;5.53;;;;;;;;;;5024261;28;20194;-75
2023/04/25 09:01:04;;;;;;;8.10;5.27;;;;;;;;;;5040421;28;20182;-76
2023/04/25 09:03:37;;;;;;;9.30;5.50;;;;;;;;;;5046586;28;20212;-79
2023/04/25 09:06:04;;;;;;;11.10;5.73;;;;;;;;;;5035675;28;20202;-78
2023/04/25 09:08:30;;;;;;;11.80;5.57;;;;;;;;;;5047467;28;20212;-78
2023/04/25 09:10:57;;;;;;;9.97;5.50;;;;;;;;;;5042563;28;20608;-78
2023/04/25 09:13:27;;;;;;;9.33;5.00;;;;;;;;;;5010993;28;20179;-78
2023/04/25 09:16:27;;;;;;;8.47;4.83;;;;;;;;;;5034944;28;20198;-78
2023/04/25 09:19:29;;;;;;;10.90;6.07;;;;;;;;;;5027101;28;20269;-78
2023/04/25 09:21:56;;;;;;;12.70;6.03;;;;;;;;;;5010828;28;20697;-78
2023/04/25 09:24:36;;;;;;;11.50;5.50;;;;;;;;;;5045688;28;20647;-78
2023/04/25 09:27:10;;;;;;;8.43;6.00;;;;;;;;;;5060105;28;20716;-78
2023/04/25 09:29:37;;;;;;;9.70;6.07;;;;;;;;;;5047097;28;20177;-78
2023/04/25 09:32:15;;;;;;;12.00;5.80;;;;;;;;;;5046790;28;20178;-78
2023/04/25 09:34:43;;;;;;;8.57;5.40;;;;;;;;;;5045634;28;20619;-78
2023/04/25 09:37:12;;;;;;;9.17;4.90;;;;;;;;;;5037256;28;20266;-78
2023/04/25 09:40:05;;;;;;;9.23;6.07;;;;;;;;;;5047933;28;20257;-78
2023/04/25 09:42:34;;;;;;;9.70;5.73;;;;;;;;;;5030359;28;20247;-78
2023/04/25 09:45:02;;;;;;;11.53;5.97;;;;;;;;;;5046650;28;20202;-78
2023/04/25 09:47:31;;;;;;;9.87;6.20;;;;;;;;;;5030387;28;20566;-78
2023/04/25 09:50:00;;;;;;;9.33;6.07;;;;;;;;;;5046604;28;20175;-78
2023/04/25 09:52:26;;;;;;;12.77;5.60;;;;;;;;;;5046477;28;20186;-78
2023/04/25 09:55:02;;;;;;;11.10;5.97;;;;;;;;;;5029648;28;20582;-78
2023/04/25 09:57:32;;;;;;;8.73;5.83;;;;;;;;;;5046132;28;20193;-78
2023/04/25 10:00:00;;;;;;;11.63;6.47;;;;;;;;;;5051981;28;20210;-78
2023/04/25 10:02:32;;;;;;;9.47;6.10;;;;;;;;;;5034117;28;20193;-78
2023/04/25 10:05:06;;;;;;;12.97;6.47;;;;;;;;;;5046186;28;20197;-78
2023/04/25 10:07:38;;;;;;;10.20;6.73;;;;;;;;;;5029186;28;20214;-78
2023/04/25 10:10:08;;;;;;;11.23;6.57;;;;;;;;;;5006811;28;20282;-78
2023/04/25 10:12:34;;;;;;;10.40;6.37;;;;;;;;;;5018861;28;20945;-78
2023/04/25 10:15:06;;;;;;;10.10;5.90;;;;;;;;;;5028579;28;20253;-78
2023/04/25 10:17:40;;;;;;;9.83;5.93;;;;;;;;;;5028184;28;20195;-78
2023/04/25 10:20:11;;;;;;;10.20;5.40;;;;;;;;;;5026175;28;20228;-78
2023/04/25 10:22:40;;;;;;;8.67;5.60;;;;;;;;;;5033601;28;20432;-78
2023/04/25 10:25:08;;;;;;;9.93;5.77;;;;;;;;;;5024380;28;20281;-78
2023/04/25 10:27:34;;;;;;;9.00;5.80;;;;;;;;;;5028956;28;20190;-77
2023/04/25 10:30:12;;;;;;;7.80;5.30;;;;;;;;;;5032190;28;20195;-78
2023/04/25 10:32:39;;;;;;;9.63;5.40;;;;;;;;;;5032125;28;20202;-78
2023/04/25 10:35:12;;;;;;;9.90;5.93;;;;;;;;;;5029292;28;20207;-78
2023/04/25 10:37:39;;;;;;;10.93;5.30;;;;;;;;;;5021665;28;20183;-78
2023/04/25 10:40:09;;;;;;;10.87;4.40;;;;;;;;;;5026418;28;20186;-79
2023/04/25 10:42:35;;;;;;;8.60;4.60;;;;;;;;;;5032390;28;20740;-79
2023/04/25 10:45:06;;;;;;;6.80;4.13;;;;;;;;;;5034945;28;20236;-80
2023/04/25 10:47:36;;;;;;;5.90;3.73;;;;;;;;;;5033793;28;20615;-79
2023/04/25 10:50:09;;;;;;;6.40;3.60;;;;;;;;;;5029406;28;20187;-77
2023/04/25 10:52:35;;;;;;;4.93;3.43;;;;;;;;;;5027479;28;20197;-78
2023/04/25 10:55:04;;;;;;;5.77;3.60;;;;;;;;;;5017701;28;21003;-78
2023/04/25 10:57:31;;;;;;;5.73;3.13;;;;;;;;;;5030136;28;20178;-82
2023/04/25 11:00:06;;;;;;;5.13;3.60;;;;;;;;;;5033678;28;20244;-79
2023/04/25 11:02:37;;;;;;;5.13;2.90;;;;;;;;;;5033959;28;20176;-78
2023/04/25 11:05:03;;;;;;;4.57;2.80;;;;;;;;;;5030256;28;20210;-79
2023/04/25 11:07:35;;;;;;;5.10;3.30;;;;;;;;;;5024027;28;20205;-79
2023/04/25 11:10:04;;;;;;;5.57;3.00;;;;;;;;;;5034811;28;20186;-78
2023/04/25 11:12:31;;;;;;;6.43;3.17;;;;;;;;;;5034028;28;20213;-79
2023/04/25 11:15:01;;;;;;;5.70;2.93;;;;;;;;;;5021617;28;20271;-79
2023/04/25 11:17:28;;;;;;;4.03;2.90;;;;;;;;;;5019549;28;20246;-77
2023/04/25 11:19:56;;;;;;;4.87;3.07;;;;;;;;;;5023649;28;20261;-77
2023/04/25 11:22:22;;;;;;;6.37;2.77;;;;;;;;;;5029677;28;20501;-78
2023/04/25 11:24:48;;;;;;;5.73;2.90;;;;;;;;;;5029560;28;20190;-77
2023/04/25 11:27:15;;;;;;;5.30;3.10;;;;;;;;;;5027657;28;20687;-77
2023/04/25 11:29:41;;;;;;;5.17;3.53;;;;;;;;;;5025952;28;20179;-77
2023/04/25 11:32:08;;;;;;;5.73;3.20;;;;;;;;;;5036086;28;20289;-77
2023/04/25 11:34:34;;;;;;;4.10;2.87;;;;;;;;;;5027131;28;20625;-76
2023/04/25 11:37:01;;;;;;;7.90;3.73;;;;;;;;;;5027547;28;20568;-77
2023/04/25 11:39:28;;;;;;;5.87;3.23;;;;;;;;;;5029064;28;20185;-77
2023/04/25 11:41:55;;;;;;;4.30;3.00;;;;;;;;;;5032240;28;20681;-77
2023/04/25 11:44:21;;;;;;;5.80;3.20;;;;;;;;;;5028005;28;20183;-74
2023/04/25 11:46:48;;;;;;;7.00;3.20;;;;;;;;;;5029993;28;20235;-73
2023/04/25 11:49:15;;;;;;;4.80;3.30;;;;;;;;;;5019786;28;20178;-73
2023/04/25 11:51:41;;;;;;;5.00;3.10;;;;;;;;;;5025688;28;20182;-73
2023/04/25 11:54:07;;;;;;;5.60;3.10;;;;;;;;;;5022574;28;20210;-73
2023/04/25 11:56:34;;;;;;;5.03;2.97;;;;;;;;;;5030978;28;20200;-74
2023/04/25 11:59:01;;;;;;;6.20;3.50;;;;;;;;;;5018140;28;20186;-73
2023/04/25 12:01:27;;;;;;;6.47;3.40;;;;;;;;;;5014141;28;20233;-74
2023/04/25 12:03:54;;;;;;;5.80;3.30;;;;;;;;;;5021020;28;20540;-74
2023/04/25 12:06:20;;;;;;;6.53;3.53;;;;;;;;;;5016016;28;20199;-73
2023/04/25 12:09:05;;;;;;;7.43;3.67;;;;;;;;;;5027300;28;20190;-73
2023/04/25 12:11:32;;;;;;;5.80;3.43;;;;;;;;;;5026025;28;20183;-74
2023/04/25 12:14:07;;;;;;;7.03;3.70;;;;;;;;;;5034518;28;20641;-74
2023/04/25 12:16:46;;;;;;;6.90;3.33;;;;;;;;;;5024164;28;20202;-74
2023/04/25 12:19:15;;;;;;;6.53;3.67;;;;;;;;;;5011539;28;20717;-74
2023/04/25 12:21:42;;;;;;;8.00;3.90;;;;;;;;;;5029680;28;20658;-74
2023/04/25 12:24:13;;;;;;;7.83;3.90;;;;;;;;;;5027116;28;20555;-74
2023/04/25 12:26:58;;;;;;;5.97;3.80;;;;;;;;;;5028577;28;20272;-74
2023/04/25 12:29:25;;;;;;;6.23;3.87;;;;;;;;;;5021735;28;20741;-74
2023/04/25 12:31:52;;;;;;;6.40;4.50;;;;;;;;;;5030782;28;20808;-74
2023/04/25 12:34:19;;;;;;;6.13;3.73;;;;;;;;;;5029988;28;20222;-74
2023/04/25 12:36:46;;;;;;;6.10;4.03;;;;;;;;;;5027404;28;20194;-74
2023/04/25 12:39:15;;;;;;;5.90;3.67;;;;;;;;;;5026841;28;20190;-74
2023/04/25 12:41:42;;;;;;;4.97;3.57;;;;;;;;;;5025459;28;20293;-74
2023/04/25 12:44:08;;;;;;;5.97;3.60;;;;;;;;;;5011333;28;20207;-74
2023/04/25 12:46:34;;;;;;;4.53;3.37;;;;;;;;;;5014286;28;20206;-74
2023/04/25 12:49:00;;;;;;;6.57;4.00;;;;;;;;;;5025133;28;20189;-74
2023/04/25 12:51:27;;;;;;;6.23;3.73;;;;;;;;;;5031067;28;20186;-74
2023/04/25 12:53:54;;;;;;;5.63;3.93;;;;;;;;;;5030933;28;20182;-74
2023/04/25 12:56:20;;;;;;;5.07;3.50;;;;;;;;;;5017538;28;20281;-74
2023/04/25 12:58:48;;;;;;;5.00;4.00;;;;;;;;;;5030954;28;20268;-74
2023/04/25 13:01:14;;;;;;;6.37;4.27;;;;;;;;;;5022495;28;20274;-73
2023/04/25 13:03:40;;;;;;;9.33;4.00;;;;;;;;;;5022854;28;20669;-74
2023/04/25 13:06:07;;;;;;;5.53;4.40;;;;;;;;;;5030211;28;20217;-74
2023/04/25 13:08:34;;;;;;;5.77;3.93;;;;;;;;;;5029194;28;20193;-74
2023/04/25 13:11:01;;;;;;;6.30;4.23;;;;;;;;;;5030531;28;20186;-74
2023/04/25 13:13:27;;;;;;;6.80;4.10;;;;;;;;;;5030855;28;20191;-74
2023/04/25 13:15:53;;;;;;;8.03;4.70;;;;;;;;;;5032538;28;20206;-74
2023/04/25 13:18:19;;;;;;;8.77;4.23;;;;;;;;;;5015669;28;20180;-74
2023/04/25 13:20:46;;;;;;;5.60;3.73;;;;;;;;;;5024209;28;20202;-74
2023/04/25 13:23:12;;;;;;;7.87;4.70;;;;;;;;;;5034729;28;20183;-74
2023/04/25 13:25:38;;;;;;;6.73;4.40;;;;;;;;;;5030285;28;20248;-74
2023/04/25 13:28:05;;;;;;;6.97;4.37;;;;;;;;;;5030905;28;20225;-74
2023/04/25 13:30:31;;;;;;;6.97;4.03;;;;;;;;;;5032498;28;20192;-74
2023/04/25 13:33:02;;;;;;;7.07;4.67;;;;;;;;;;5037104;28;20190;-74
2023/04/25 13:35:29;;;;;;;7.93;4.80;;;;;;;;;;5028379;28;20221;-74
2023/04/25 13:37:56;;;;;;;10.20;4.93;;;;;;;;;;5027402;28;20277;-74
2023/04/25 13:40:22;;;;;;;7.80;4.73;;;;;;;;;;5029095;28;20792;-74
2023/04/25 13:42:48;;;;;;;7.10;4.40;;;;;;;;;;5033920;28;20174;-74
2023/04/25 13:45:14;;;;;;;6.77;4.30;;;;;;;;;;5023633;28;20213;-74
2023/04/25 13:47:40;;;;;;;6.93;4.10;;;;;;;;;;5034234;28;20186;-74
2023/04/25 13:50:07;;;;;;;7.47;5.10;;;;;;;;;;5028412;28;20208;-74
2023/04/25 13:52:34;;;;;;;8.23;4.90;;;;;;;;;;5028248;28;20240;-74
2023/04/25 13:55:02;;;;;;;6.93;4.40;;;;;;;;;;5027769;28;20712;-74
2023/04/25 13:57:29;;;;;;;8.93;4.63;;;;;;;;;;5034307;28;20221;-74
2023/04/25 13:59:56;;;;;;;6.30;4.70;;;;;;;;;;5033923;28;20525;-74
2023/04/25 14:02:22;;;;;;;6.60;4.33;;;;;;;;;;5031058;28;20186;-74
2023/04/25 14:04:48;;;;;;;5.80;4.60;;;;;;;;;;5034043;28;20186;-73
2023/04/25 14:07:19;;;;;;;8.23;4.30;;;;;;;;;;5049831;28;20194;-74
2023/04/25 14:09:45;;;;;;;5.90;4.40;;;;;;;;;;5036333;28;20282;-74
2023/04/25 14:12:11;;;;;;;7.17;4.27;;;;;;;;;;5020064;28;20205;-74
2023/04/25 14:14:37;;;;;;;9.60;4.40;;;;;;;;;;5032030;28;20704;-74
2023/04/25 14:17:04;;;;;;;5.80;4.67;;;;;;;;;;5033173;28;20203;-74
2023/04/25 14:19:30;;;;;;;6.30;4.33;;;;;;;;;;5014009;28;20180;-74
2023/04/25 14:21:56;;;;;;;9.03;4.90;;;;;;;;;;5026095;28;20185;-74
2023/04/25 14:24:23;;;;;;;7.37;4.60;;;;;;;;;;5015422;28;20226;-74
2023/04/25 14:26:49;;;;;;;9.80;5.00;;;;;;;;;;5026055;28;20213;-74
2023/04/25 14:29:17;;;;;;;9.57;4.77;;;;;;;;;;5034456;28;20186;-74
2023/04/25 14:31:45;;;;;;;9.43;4.60;;;;;;;;;;5053164;28;20653;-74
2023/04/25 14:34:11;;;;;;;7.60;4.20;;;;;;;;;;5032079;28;20439;-74
2023/04/25 14:36:37;;;;;;;7.43;4.27;;;;;;;;;;5016733;28;20269;-74
2023/04/25 14:39:07;;;;;;;8.97;4.80;;;;;;;;;;5026628;28;20185;-73
2023/04/25 14:41:33;;;;;;;8.07;4.03;;;;;;;;;;5030939;28;20713;-74
2023/04/25 14:43:59;;;;;;;9.50;3.93;;;;;;;;;;5032947;28;20650;-74
2023/04/25 14:46:25;;;;;;;7.53;3.80;;;;;;;;;;5033129;28;20281;-74
2023/04/25 14:48:52;;;;;;;8.00;4.10;;;;;;;;;;5046102;28;20174;-74
2023/04/25 14:51:18;;;;;;;9.17;4.30;;;;;;;;;;5034642;28;20218;-74
2023/04/25 14:53:45;;;;;;;8.60;4.20;;;;;;;;;;5011557;28;20176;-74
2023/04/25 14:56:11;;;;;;;8.77;4.00;;;;;;;;;;5019527;28;20674;-73